sensor_id;sensor_type;location;lat;lon;timestamp;P1;durP1;ratioP1;P2;durP2;ratioP2
948;SDS011;461;51.436;7.312;2023-08-07T03:35:54;3.07;;;2.33;;
948;SDS011;461;51.436;7.312;2023-08-07T05:24:37;10.83;;;7.37;;
948;SDS011;461;51.436;7.312;2023-08-07T05:27:10;13.07;;;6.90;;
948;SDS011;461;51.436;7.312;2023-08-07T05:29:36;7.57;;;5.07;;
948;SDS011;461;51.436;7.312;2023-08-07T05:32:16;7.53;;;4.80;;
948;SDS011;461;51.436;7.312;2023-08-07T05:34:47;7.40;;;4.83;;
948;SDS011;461;51.436;7.312;2023-08-07T05:37:16;8.83;;;4.30;;
948;SDS011;461;51.436;7.312;2023-08-07T05:39:42;4.53;;;3.40;;
948;SDS011;461;51.436;7.312;2023-08-07T05:42:11;9.50;;;4.03;;
948;SDS011;461;51.436;7.312;2023-08-07T05:44:40;9.60;;;3.73;;
948;SDS011;461;51.436;7.312;2023-08-07T05:47:33;7.17;;;3.50;;
948;SDS011;461;51.436;7.312;2023-08-07T05:50:51;4.50;;;2.67;;
948;SDS011;461;51.436;7.312;2023-08-07T06:00:24;5.13;;;2.60;;
948;SDS011;461;51.436;7.312;2023-08-07T06:03:26;8.97;;;2.77;;
948;SDS011;461;51.436;7.312;2023-08-07T06:09:27;3.57;;;2.10;;
948;SDS011;461;51.436;7.312;2023-08-07T06:12:26;8.17;;;3.47;;
948;SDS011;461;51.436;7.312;2023-08-07T06:18:05;5.93;;;2.80;;
948;SDS011;461;51.436;7.312;2023-08-07T06:20:30;4.07;;;2.70;;
948;SDS011;461;51.436;7.312;2023-08-07T06:22:56;5.20;;;3.40;;
948;SDS011;461;51.436;7.312;2023-08-07T06:25:22;5.03;;;3.30;;
948;SDS011;461;51.436;7.312;2023-08-07T06:27:49;7.40;;;4.10;;
948;SDS011;461;51.436;7.312;2023-08-07T06:30:15;5.30;;;4.03;;
948;SDS011;461;51.436;7.312;2023-08-07T07:11:32;5.70;;;5.10;;
948;SDS011;461;51.436;7.312;2023-08-07T07:14:01;7.43;;;6.07;;
948;SDS011;461;51.436;7.312;2023-08-07T07:17:09;6.67;;;6.00;;
948;SDS011;461;51.436;7.312;2023-08-07T07:19:38;6.83;;;5.50;;
948;SDS011;461;51.436;7.312;2023-08-07T07:22:12;6.70;;;5.90;;
948;SDS011;461;51.436;7.312;2023-08-07T07:24:45;12.50;;;6.60;;
948;SDS011;461;51.436;7.312;2023-08-07T07:27:11;9.10;;;6.40;;
948;SDS011;461;51.436;7.312;2023-08-07T07:30:12;12.27;;;6.50;;
948;SDS011;461;51.436;7.312;2023-08-07T07:32:38;7.10;;;6.40;;
948;SDS011;461;51.436;7.312;2023-08-07T07:35:10;10.70;;;7.10;;
948;SDS011;461;51.436;7.312;2023-08-07T07:37:36;9.50;;;7.03;;
948;SDS011;461;51.436;7.312;2023-08-07T07:40:01;12.43;;;7.63;;
948;SDS011;461;51.436;7.312;2023-08-07T07:42:36;6.47;;;5.87;;
948;SDS011;461;51.436;7.312;2023-08-07T07:45:11;67.37;;;9.80;;
948;SDS011;461;51.436;7.312;2023-08-07T09:16:13;7.03;;;4.07;;
948;SDS011;461;51.436;7.312;2023-08-07T09:21:34;5.90;;;3.97;;
948;SDS011;461;51.436;7.312;2023-08-07T09:24:04;6.00;;;4.33;;
948;SDS011;461;51.436;7.312;2023-08-07T09:26:48;8.00;;;3.70;;
948;SDS011;461;51.436;7.312;2023-08-07T09:29:33;10.77;;;4.13;;
948;SDS011;461;51.436;7.312;2023-08-07T09:32:17;16.77;;;5.37;;
948;SDS011;461;51.436;7.312;2023-08-07T10:01:40;10.57;;;4.60;;
948;SDS011;461;51.436;7.312;2023-08-07T10:04:09;13.10;;;4.83;;
948;SDS011;461;51.436;7.312;2023-08-07T10:48:56;7.20;;;3.50;;
948;SDS011;461;51.436;7.312;2023-08-07T10:51:36;8.03;;;3.53;;
948;SDS011;461;51.436;7.312;2023-08-07T11:57:47;6.27;;;2.87;;
948;SDS011;461;51.436;7.312;2023-08-07T13:29:18;5.47;;;2.20;;
948;SDS011;461;51.436;7.312;2023-08-07T13:31:44;4.50;;;2.70;;
948;SDS011;461;51.436;7.312;2023-08-07T17:36:03;6.03;;;2.87;;
948;SDS011;461;51.436;7.312;2023-08-07T17:38:33;5.20;;;3.07;;
948;SDS011;461;51.436;7.312;2023-08-07T17:41:04;4.83;;;2.90;;
948;SDS011;461;51.436;7.312;2023-08-07T17:43:31;5.13;;;2.70;;
948;SDS011;461;51.436;7.312;2023-08-07T17:45:57;5.90;;;2.70;;
948;SDS011;461;51.436;7.312;2023-08-07T17:48:24;5.20;;;3.90;;
948;SDS011;461;51.436;7.312;2023-08-07T17:50:50;3.63;;;2.53;;
948;SDS011;461;51.436;7.312;2023-08-07T17:53:18;8.90;;;2.40;;
948;SDS011;461;51.436;7.312;2023-08-07T17:55:44;4.83;;;2.60;;
948;SDS011;461;51.436;7.312;2023-08-07T17:58:11;3.60;;;2.30;;
948;SDS011;461;51.436;7.312;2023-08-07T18:00:37;3.10;;;2.73;;
948;SDS011;461;51.436;7.312;2023-08-07T18:05:43;12.57;;;4.40;;
948;SDS011;461;51.436;7.312;2023-08-07T18:08:10;9.63;;;4.23;;
948;SDS011;461;51.436;7.312;2023-08-07T18:10:36;3.83;;;2.13;;
948;SDS011;461;51.436;7.312;2023-08-07T18:13:02;4.53;;;1.97;;
948;SDS011;461;51.436;7.312;2023-08-07T18:15:28;3.90;;;1.80;;
948;SDS011;461;51.436;7.312;2023-08-07T18:17:54;3.57;;;1.87;;
948;SDS011;461;51.436;7.312;2023-08-07T18:20:21;3.87;;;2.00;;
948;SDS011;461;51.436;7.312;2023-08-07T18:22:47;6.33;;;3.70;;
948;SDS011;461;51.436;7.312;2023-08-07T18:25:13;5.00;;;2.47;;
948;SDS011;461;51.436;7.312;2023-08-07T18:27:39;4.93;;;1.67;;
948;SDS011;461;51.436;7.312;2023-08-07T18:30:05;4.80;;;2.90;;
948;SDS011;461;51.436;7.312;2023-08-07T18:32:32;3.90;;;2.30;;
948;SDS011;461;51.436;7.312;2023-08-07T18:35:02;5.00;;;2.10;;
948;SDS011;461;51.436;7.312;2023-08-07T18:37:28;3.63;;;2.10;;
948;SDS011;461;51.436;7.312;2023-08-07T18:39:54;3.07;;;2.70;;
948;SDS011;461;51.436;7.312;2023-08-07T18:42:20;3.30;;;2.00;;
948;SDS011;461;51.436;7.312;2023-08-07T18:44:46;6.63;;;2.30;;
948;SDS011;461;51.436;7.312;2023-08-07T18:47:14;4.83;;;2.53;;
948;SDS011;461;51.436;7.312;2023-08-07T18:49:41;7.17;;;2.13;;
948;SDS011;461;51.436;7.312;2023-08-07T18:52:07;3.10;;;1.87;;
948;SDS011;461;51.436;7.312;2023-08-07T18:54:33;5.57;;;3.50;;
948;SDS011;461;51.436;7.312;2023-08-07T18:56:59;1.87;;;1.60;;
948;SDS011;461;51.436;7.312;2023-08-07T18:59:25;3.80;;;2.60;;
948;SDS011;461;51.436;7.312;2023-08-07T19:01:51;7.73;;;3.20;;
948;SDS011;461;51.436;7.312;2023-08-07T19:04:23;2.83;;;2.00;;
948;SDS011;461;51.436;7.312;2023-08-07T19:12:41;3.00;;;1.90;;
948;SDS011;461;51.436;7.312;2023-08-07T19:15:15;3.33;;;1.90;;
948;SDS011;461;51.436;7.312;2023-08-07T19:17:43;6.40;;;2.40;;
948;SDS011;461;51.436;7.312;2023-08-07T19:20:10;4.90;;;2.00;;
948;SDS011;461;51.436;7.312;2023-08-07T19:22:38;2.87;;;2.40;;
948;SDS011;461;51.436;7.312;2023-08-07T19:25:06;4.00;;;2.27;;
948;SDS011;461;51.436;7.312;2023-08-07T19:27:36;4.13;;;3.70;;
948;SDS011;461;51.436;7.312;2023-08-07T19:30:04;3.20;;;2.17;;
948;SDS011;461;51.436;7.312;2023-08-07T19:32:32;2.63;;;2.10;;
948;SDS011;461;51.436;7.312;2023-08-07T19:35:01;3.83;;;2.47;;
948;SDS011;461;51.436;7.312;2023-08-07T19:37:27;4.80;;;2.40;;
948;SDS011;461;51.436;7.312;2023-08-07T19:39:55;3.97;;;2.60;;
948;SDS011;461;51.436;7.312;2023-08-07T19:42:24;6.87;;;3.10;;
948;SDS011;461;51.436;7.312;2023-08-07T19:44:51;4.43;;;2.40;;
948;SDS011;461;51.436;7.312;2023-08-07T19:47:20;2.90;;;2.00;;
948;SDS011;461;51.436;7.312;2023-08-07T20:32:04;9.00;;;4.30;;
948;SDS011;461;51.436;7.312;2023-08-07T20:34:37;15.13;;;4.80;;
948;SDS011;461;51.436;7.312;2023-08-07T20:50:23;3.70;;;2.50;;
948;SDS011;461;51.436;7.312;2023-08-07T20:52:50;4.00;;;2.80;;
948;SDS011;461;51.436;7.312;2023-08-07T20:55:20;4.67;;;2.43;;
948;SDS011;461;51.436;7.312;2023-08-07T20:57:46;3.87;;;2.63;;
948;SDS011;461;51.436;7.312;2023-08-07T21:00:13;5.80;;;2.67;;
948;SDS011;461;51.436;7.312;2023-08-07T21:02:41;6.97;;;2.70;;
948;SDS011;461;51.436;7.312;2023-08-07T21:05:08;5.53;;;3.10;;
948;SDS011;461;51.436;7.312;2023-08-07T21:07:34;6.30;;;2.37;;
948;SDS011;461;51.436;7.312;2023-08-07T21:10:03;5.63;;;2.90;;
948;SDS011;461;51.436;7.312;2023-08-07T21:12:30;4.10;;;2.83;;
948;SDS011;461;51.436;7.312;2023-08-07T21:14:58;6.80;;;3.20;;
948;SDS011;461;51.436;7.312;2023-08-07T21:17:28;5.60;;;2.80;;
948;SDS011;461;51.436;7.312;2023-08-07T21:19:55;5.30;;;2.93;;
948;SDS011;461;51.436;7.312;2023-08-07T21:22:22;9.57;;;2.80;;
948;SDS011;461;51.436;7.312;2023-08-07T21:24:49;6.07;;;2.87;;
948;SDS011;461;51.436;7.312;2023-08-07T21:27:16;5.53;;;2.90;;
948;SDS011;461;51.436;7.312;2023-08-07T21:29:43;3.73;;;2.50;;
948;SDS011;461;51.436;7.312;2023-08-07T21:32:13;8.63;;;2.87;;
948;SDS011;461;51.436;7.312;2023-08-07T21:34:39;9.23;;;2.80;;
948;SDS011;461;51.436;7.312;2023-08-07T21:37:06;4.43;;;2.43;;
948;SDS011;461;51.436;7.312;2023-08-07T21:39:33;4.80;;;2.23;;
948;SDS011;461;51.436;7.312;2023-08-07T21:41:59;4.70;;;2.60;;
948;SDS011;461;51.436;7.312;2023-08-07T21:44:27;4.57;;;2.60;;
948;SDS011;461;51.436;7.312;2023-08-07T21:46:53;7.03;;;3.07;;
948;SDS011;461;51.436;7.312;2023-08-07T21:49:20;3.97;;;2.60;;
948;SDS011;461;51.436;7.312;2023-08-07T21:51:48;5.43;;;2.80;;
948;SDS011;461;51.436;7.312;2023-08-07T21:54:16;6.67;;;2.97;;
948;SDS011;461;51.436;7.312;2023-08-07T21:56:44;4.83;;;2.60;;
948;SDS011;461;51.436;7.312;2023-08-07T21:59:11;4.03;;;2.93;;
948;SDS011;461;51.436;7.312;2023-08-07T22:01:38;7.97;;;3.30;;
948;SDS011;461;51.436;7.312;2023-08-07T22:04:05;8.13;;;3.80;;
948;SDS011;461;51.436;7.312;2023-08-07T22:14:39;4.37;;;3.50;;
948;SDS011;461;51.436;7.312;2023-08-07T22:17:09;3.83;;;2.77;;
948;SDS011;461;51.436;7.312;2023-08-07T22:19:37;8.47;;;3.30;;
948;SDS011;461;51.436;7.312;2023-08-07T22:22:04;7.40;;;2.77;;
948;SDS011;461;51.436;7.312;2023-08-07T22:24:31;3.17;;;2.67;;
948;SDS011;461;51.436;7.312;2023-08-07T22:26:59;3.53;;;2.77;;
948;SDS011;461;51.436;7.312;2023-08-07T22:29:26;3.93;;;2.90;;
948;SDS011;461;51.436;7.312;2023-08-07T22:31:53;4.00;;;3.10;;
948;SDS011;461;51.436;7.312;2023-08-07T22:34:20;6.50;;;3.23;;
948;SDS011;461;51.436;7.312;2023-08-07T22:36:49;3.63;;;2.93;;
948;SDS011;461;51.436;7.312;2023-08-07T22:39:50;5.97;;;2.67;;
948;SDS011;461;51.436;7.312;2023-08-07T22:42:17;5.07;;;2.63;;
948;SDS011;461;51.436;7.312;2023-08-07T22:44:44;4.63;;;2.90;;
948;SDS011;461;51.436;7.312;2023-08-07T22:49:48;2.80;;;2.50;;
948;SDS011;461;51.436;7.312;2023-08-07T22:52:18;2.77;;;2.20;;
948;SDS011;461;51.436;7.312;2023-08-07T22:54:47;4.70;;;2.73;;
948;SDS011;461;51.436;7.312;2023-08-07T22:57:15;5.30;;;2.70;;
948;SDS011;461;51.436;7.312;2023-08-07T22:59:42;3.87;;;2.40;;
948;SDS011;461;51.436;7.312;2023-08-07T23:02:11;4.33;;;2.70;;
948;SDS011;461;51.436;7.312;2023-08-07T23:04:38;4.20;;;2.63;;
948;SDS011;461;51.436;7.312;2023-08-07T23:07:09;3.83;;;2.27;;
948;SDS011;461;51.436;7.312;2023-08-07T23:09:36;3.60;;;2.20;;
948;SDS011;461;51.436;7.312;2023-08-07T23:12:03;4.53;;;2.10;;
948;SDS011;461;51.436;7.312;2023-08-07T23:14:31;5.13;;;2.20;;
948;SDS011;461;51.436;7.312;2023-08-07T23:16:59;8.30;;;2.23;;
948;SDS011;461;51.436;7.312;2023-08-07T23:19:29;4.27;;;2.33;;
948;SDS011;461;51.436;7.312;2023-08-07T23:21:57;3.80;;;2.37;;
948;SDS011;461;51.436;7.312;2023-08-07T23:24:23;2.47;;;1.93;;
948;SDS011;461;51.436;7.312;2023-08-07T23:27:06;2.90;;;2.30;;
948;SDS011;461;51.436;7.312;2023-08-07T23:32:12;3.40;;;1.70;;
948;SDS011;461;51.436;7.312;2023-08-07T23:35:06;3.73;;;2.17;;
948;SDS011;461;51.436;7.312;2023-08-07T23:37:54;3.50;;;2.03;;
948;SDS011;461;51.436;7.312;2023-08-07T23:55:53;2.53;;;2.30;;
948;SDS011;461;51.436;7.312;2023-08-07T23:58:19;3.20;;;2.70;;
